Time;durP1;ratioP1;P1;durP2;ratioP2;P2;SDS_P1;SDS_P2;PMS_P1;PMS_P2;Temp;Humidity;BMP_temperature;BMP_pressure;BME280_temperature;BME280_humidity;BME280_pressure;Samples;Min_cycle;Max_cycle;Signal;HPM_P1;HPM_P2
2022/06/09 00:00:10;;;;;;;5.07;3.40;;;;;;;;;;4972421;28;20026;-78
2022/06/09 00:02:38;;;;;;;6.30;3.85;;;;;;;;;;4971146;28;20034;-76
2022/06/09 00:05:08;;;;;;;4.70;3.20;;;;;;;;;;4972496;28;20085;-79
2022/06/09 00:07:34;;;;;;;4.40;3.22;;;;;;;;;;4972433;28;20030;-79
2022/06/09 00:10:07;;;;;;;5.70;3.63;;;;;;;;;;4972400;28;20037;-77
2022/06/09 00:12:33;;;;;;;5.50;3.20;;;;;;;;;;4972471;28;20023;-77
2022/06/09 00:14:59;;;;;;;4.70;3.60;;;;;;;;;;4970912;28;20026;-77
2022/06/09 00:17:25;;;;;;;5.18;3.60;;;;;;;;;;4972371;28;20474;-77
2022/06/09 00:19:51;;;;;;;13.13;4.25;;;;;;;;;;4955003;28;20038;-77
2022/06/09 00:22:19;;;;;;;11.52;3.90;;;;;;;;;;4981198;28;20388;-77
2022/06/09 00:24:45;;;;;;;9.38;3.42;;;;;;;;;;4990682;28;20030;-77
2022/06/09 00:27:10;;;;;;;7.22;3.58;;;;;;;;;;5006281;28;20437;-78
2022/06/09 00:29:36;;;;;;;9.38;3.60;;;;;;;;;;4991646;28;20037;-78
2022/06/09 00:32:03;;;;;;;12.07;4.45;;;;;;;;;;4989951;28;20074;-77
2022/06/09 00:34:29;;;;;;;3.50;3.20;;;;;;;;;;4991830;28;20041;-78
2022/06/09 00:36:54;;;;;;;6.88;3.22;;;;;;;;;;4991640;28;20038;-79
2022/06/09 00:39:20;;;;;;;3.88;3.00;;;;;;;;;;4991350;28;20176;-78
2022/06/09 00:41:45;;;;;;;4.43;3.55;;;;;;;;;;4990023;28;20018;-78
2022/06/09 00:44:21;;;;;;;6.93;3.28;;;;;;;;;;4989767;28;20479;-78
2022/06/09 00:46:54;;;;;;;6.30;3.70;;;;;;;;;;4991316;28;20019;-78
2022/06/09 00:49:37;;;;;;;4.45;3.30;;;;;;;;;;4991440;28;20030;-78
2022/06/09 00:52:06;;;;;;;5.93;3.20;;;;;;;;;;4989745;28;20030;-78
2022/06/09 00:54:43;;;;;;;4.95;3.85;;;;;;;;;;4991210;28;20367;-78
2022/06/09 00:57:21;;;;;;;6.85;3.85;;;;;;;;;;5005431;28;20046;-78
2022/06/09 00:59:51;;;;;;;3.83;3.28;;;;;;;;;;4991542;28;20084;-78
2022/06/09 01:02:19;;;;;;;4.72;3.10;;;;;;;;;;4988967;28;20030;-77
2022/06/09 01:04:48;;;;;;;3.17;2.88;;;;;;;;;;4989681;28;20108;-78
2022/06/09 01:07:18;;;;;;;4.60;3.20;;;;;;;;;;4989477;28;20034;-77
2022/06/09 01:09:44;;;;;;;6.43;3.53;;;;;;;;;;4989650;28;20022;-78
2022/06/09 01:12:41;;;;;;;3.70;3.17;;;;;;;;;;4989330;28;20034;-78
2022/06/09 01:15:11;;;;;;;5.75;2.90;;;;;;;;;;4988690;28;20042;-77
2022/06/09 01:17:56;;;;;;;4.75;3.00;;;;;;;;;;4989461;28;20033;-77
2022/06/09 01:20:30;;;;;;;3.90;2.72;;;;;;;;;;4990518;28;20122;-78
2022/06/09 01:23:22;;;;;;;6.60;3.30;;;;;;;;;;4974727;28;20054;-77
2022/06/09 01:26:00;;;;;;;;;;;;;;;;;;4970488;28;20030;-78
2022/06/09 01:28:31;;;;;;;6.05;3.03;;;;;;;;;;4971315;28;19938;-77
2022/06/09 01:31:32;;;;;;;4.15;2.90;;;;;;;;;;4971353;28;20138;-77
2022/06/09 01:34:28;;;;;;;3.97;2.70;;;;;;;;;;4963985;28;20113;-77
2022/06/09 01:37:16;;;;;;;4.47;3.05;;;;;;;;;;4971450;28;20510;-77
2022/06/09 01:39:56;;;;;;;4.45;2.88;;;;;;;;;;4969912;28;20034;-79
2022/06/09 01:42:36;;;;;;;3.72;2.50;;;;;;;;;;4970983;28;20503;-78
2022/06/09 01:45:10;;;;;;;3.30;2.47;;;;;;;;;;4970800;28;20031;-77
2022/06/09 01:47:43;;;;;;;4.82;3.03;;;;;;;;;;4971271;28;20331;-76
2022/06/09 01:50:15;;;;;;;4.05;2.58;;;;;;;;;;4971399;28;20050;-78
2022/06/09 01:52:42;;;;;;;3.47;3.10;;;;;;;;;;4973401;28;20027;-77
2022/06/09 01:55:13;;;;;;;4.20;2.42;;;;;;;;;;4976043;28;20081;-77
2022/06/09 01:57:42;;;;;;;3.58;2.38;;;;;;;;;;4974284;28;20526;-77
2022/06/09 02:00:15;;;;;;;2.63;2.40;;;;;;;;;;4971004;28;20502;-79
2022/06/09 02:02:58;;;;;;;5.18;2.58;;;;;;;;;;4970999;28;20086;-78
2022/06/09 02:05:30;;;;;;;4.28;2.67;;;;;;;;;;4970636;28;20384;-77
2022/06/09 02:07:59;;;;;;;5.85;2.58;;;;;;;;;;4970859;28;20499;-77
2022/06/09 02:10:32;;;;;;;4.05;2.30;;;;;;;;;;4968749;28;20510;-77
2022/06/09 02:13:09;;;;;;;2.97;1.90;;;;;;;;;;4969188;28;20069;-76
2022/06/09 02:16:03;;;;;;;2.90;2.00;;;;;;;;;;4974211;28;20037;-77
2022/06/09 02:18:34;;;;;;;1.80;1.70;;;;;;;;;;4974182;28;20495;-77
2022/06/09 02:21:12;;;;;;;2.67;2.10;;;;;;;;;;4973333;28;20118;-77
2022/06/09 02:23:38;;;;;;;3.53;2.75;;;;;;;;;;4989168;28;20133;-76
2022/06/09 02:26:04;;;;;;;2.30;2.08;;;;;;;;;;4974093;28;20418;-78
2022/06/09 02:28:31;;;;;;;2.28;1.75;;;;;;;;;;4974460;28;20039;-78
2022/06/09 02:30:57;;;;;;;2.38;1.67;;;;;;;;;;4974445;28;20031;-77
2022/06/09 02:33:22;;;;;;;1.98;1.73;;;;;;;;;;4974227;28;20031;-77
2022/06/09 02:35:49;;;;;;;3.53;1.52;;;;;;;;;;4972920;28;20089;-79
2022/06/09 02:38:15;;;;;;;1.70;1.52;;;;;;;;;;4974131;28;20034;-77
2022/06/09 02:40:41;;;;;;;3.70;1.83;;;;;;;;;;4974341;28;20076;-78
2022/06/09 02:43:06;;;;;;;1.55;1.45;;;;;;;;;;4972811;28;20452;-77
2022/06/09 02:45:33;;;;;;;2.17;1.45;;;;;;;;;;4974133;28;20525;-77
2022/06/09 02:47:59;;;;;;;2.00;1.48;;;;;;;;;;4972883;28;20399;-77
2022/06/09 02:50:26;;;;;;;2.90;2.15;;;;;;;;;;4972527;28;20505;-77
2022/06/09 02:52:51;;;;;;;2.25;1.52;;;;;;;;;;4974205;28;20031;-77
2022/06/09 02:55:17;;;;;;;4.00;2.47;;;;;;;;;;4973736;28;20038;-76
2022/06/09 02:57:42;;;;;;;3.17;1.75;;;;;;;;;;4974091;28;20073;-78
2022/06/09 03:00:14;;;;;;;2.58;1.70;;;;;;;;;;4973570;28;20039;-78
2022/06/09 03:02:41;;;;;;;3.15;1.50;;;;;;;;;;4972575;28;20532;-79
2022/06/09 03:05:07;;;;;;;4.82;1.45;;;;;;;;;;4972356;28;20113;-77
2022/06/09 03:07:32;;;;;;;2.75;1.75;;;;;;;;;;4974181;28;20114;-77
2022/06/09 03:09:58;;;;;;;5.15;1.90;;;;;;;;;;4973805;28;20039;-78
2022/06/09 03:12:23;;;;;;;1.88;1.77;;;;;;;;;;4973326;28;20458;-77
2022/06/09 03:14:49;;;;;;;2.08;1.77;;;;;;;;;;4956141;28;20039;-77
2022/06/09 03:17:14;;;;;;;2.20;2.00;;;;;;;;;;4971770;28;20062;-79
2022/06/09 03:19:40;;;;;;;8.65;1.92;;;;;;;;;;4971951;28;20442;-77
2022/06/09 03:22:07;;;;;;;4.43;1.60;;;;;;;;;;4981092;28;20475;-74
2022/06/09 03:24:33;;;;;;;2.60;2.00;;;;;;;;;;4992984;28;20065;-78
2022/06/09 03:26:58;;;;;;;3.25;2.22;;;;;;;;;;4991402;28;20022;-77
2022/06/09 03:29:24;;;;;;;3.78;1.73;;;;;;;;;;4992605;28;20109;-77
2022/06/09 03:31:50;;;;;;;4.53;1.90;;;;;;;;;;4992544;28;20037;-78
2022/06/09 03:34:18;;;;;;;3.45;2.03;;;;;;;;;;4992501;28;20517;-77
2022/06/09 03:36:44;;;;;;;4.70;1.95;;;;;;;;;;4975178;28;20042;-77
2022/06/09 03:39:11;;;;;;;2.00;1.63;;;;;;;;;;4992433;28;20109;-78
2022/06/09 03:41:37;;;;;;;1.95;1.75;;;;;;;;;;4991015;28;20026;-77
2022/06/09 03:44:04;;;;;;;3.97;2.15;;;;;;;;;;4992495;28;20438;-76
2022/06/09 03:46:29;;;;;;;3.67;1.80;;;;;;;;;;4992319;28;20038;-77
2022/06/09 03:48:55;;;;;;;3.90;1.80;;;;;;;;;;4991027;28;20034;-78
2022/06/09 03:51:20;;;;;;;2.53;2.20;;;;;;;;;;4990587;28;20061;-79
2022/06/09 03:53:46;;;;;;;5.75;2.05;;;;;;;;;;4992345;28;20038;-78
2022/06/09 03:56:18;;;;;;;7.50;2.58;;;;;;;;;;4991850;28;20041;-78
2022/06/09 03:58:44;;;;;;;1.85;1.70;;;;;;;;;;4992406;28;20034;-75
2022/06/09 04:01:13;;;;;;;3.78;1.98;;;;;;;;;;4991977;28;20026;-78
2022/06/09 04:03:40;;;;;;;3.30;2.10;;;;;;;;;;4991077;28;20030;-78
2022/06/09 04:06:09;;;;;;;2.55;2.20;;;;;;;;;;4974508;28;20034;-78
2022/06/09 04:08:35;;;;;;;7.22;2.33;;;;;;;;;;4992120;28;20034;-77
2022/06/09 04:11:00;;;;;;;3.75;1.98;;;;;;;;;;4992150;28;20037;-76
2022/06/09 04:13:25;;;;;;;4.68;1.98;;;;;;;;;;4992238;28;20027;-77
2022/06/09 04:15:51;;;;;;;6.35;2.00;;;;;;;;;;4992615;28;20034;-76
2022/06/09 04:18:16;;;;;;;2.97;2.05;;;;;;;;;;4990740;28;20106;-78
2022/06/09 04:20:42;;;;;;;6.43;2.17;;;;;;;;;;4990994;28;20085;-77
2022/06/09 04:23:07;;;;;;;2.50;2.30;;;;;;;;;;4990776;28;20141;-77
2022/06/09 04:25:33;;;;;;;4.03;2.10;;;;;;;;;;4992312;28;20061;-77
2022/06/09 04:27:58;;;;;;;2.80;1.95;;;;;;;;;;4992045;28;20030;-78
2022/06/09 04:30:24;;;;;;;4.10;2.33;;;;;;;;;;4990407;28;20088;-78
2022/06/09 04:32:49;;;;;;;3.20;2.50;;;;;;;;;;4992769;28;20030;-78
2022/06/09 04:35:15;;;;;;;10.50;2.88;;;;;;;;;;4992901;28;20109;-78
2022/06/09 04:38:23;;;;;;;2.95;2.30;;;;;;;;;;4989697;28;20026;-79
2022/06/09 04:40:33;;;;;;;3.85;2.28;;;;;;;;;;4993675;28;20049;-78
2022/06/09 04:42:59;;;;;;;3.13;2.63;;;;;;;;;;4990308;28;20073;-77
2022/06/09 04:45:24;;;;;;;4.63;2.42;;;;;;;;;;4990245;28;20042;-78
2022/06/09 04:47:50;;;;;;;3.90;2.42;;;;;;;;;;4992246;28;20100;-77
2022/06/09 04:50:18;;;;;;;5.22;2.33;;;;;;;;;;4989793;28;20084;-77
2022/06/09 04:52:44;;;;;;;5.07;2.38;;;;;;;;;;4991397;28;20391;-78
2022/06/09 04:55:10;;;;;;;3.42;2.38;;;;;;;;;;4991230;28;20037;-79
2022/06/09 04:57:36;;;;;;;4.47;2.58;;;;;;;;;;4989757;28;20037;-77
2022/06/09 05:00:04;;;;;;;2.90;2.08;;;;;;;;;;4990242;28;20040;-78
2022/06/09 05:02:29;;;;;;;2.85;2.20;;;;;;;;;;4989801;28;20397;-78
2022/06/09 05:04:55;;;;;;;3.78;2.40;;;;;;;;;;4991349;28;20038;-77
2022/06/09 05:07:20;;;;;;;3.55;2.20;;;;;;;;;;4991098;28;20117;-77
2022/06/09 05:09:46;;;;;;;3.38;2.47;;;;;;;;;;5001684;28;20034;-77
2022/06/09 05:12:11;;;;;;;6.53;2.67;;;;;;;;;;4998717;28;20030;-77
2022/06/09 05:14:37;;;;;;;3.03;2.20;;;;;;;;;;4991257;28;20030;-78
2022/06/09 05:17:02;;;;;;;5.65;2.20;;;;;;;;;;4991101;28;20073;-78
2022/06/09 05:19:29;;;;;;;4.82;2.55;;;;;;;;;;4990733;28;20030;-78
2022/06/09 05:21:54;;;;;;;2.58;2.33;;;;;;;;;;4983310;28;20497;-77
2022/06/09 05:24:20;;;;;;;6.15;3.03;;;;;;;;;;4970994;28;20026;-77
2022/06/09 05:26:45;;;;;;;3.55;2.35;;;;;;;;;;4969684;28;20054;-77
2022/06/09 05:29:11;;;;;;;3.60;2.30;;;;;;;;;;4971038;28;20026;-77
2022/06/09 05:31:36;;;;;;;4.00;2.45;;;;;;;;;;4969766;28;20090;-78
2022/06/09 05:34:02;;;;;;;3.22;2.05;;;;;;;;;;4972003;28;20038;-77
2022/06/09 05:36:27;;;;;;;4.80;2.50;;;;;;;;;;4970304;28;20391;-78
2022/06/09 05:47:04;;;;;;;6.75;2.50;;;;;;;;;;4989869;28;20033;-77
2022/06/09 05:49:30;;;;;;;4.32;2.70;;;;;;;;;;4989560;28;20343;-80
2022/06/09 05:51:56;;;;;;;6.60;2.65;;;;;;;;;;4989547;28;20065;-78
2022/06/09 05:54:22;;;;;;;3.47;2.22;;;;;;;;;;4984878;28;20466;-74
2022/06/09 05:56:48;;;;;;;5.22;2.42;;;;;;;;;;5004394;28;20027;-79
2022/06/09 05:59:14;;;;;;;5.72;2.00;;;;;;;;;;4989289;28;20084;-78
2022/06/09 06:01:40;;;;;;;3.63;2.10;;;;;;;;;;5001423;28;20026;-81
2022/06/09 06:04:07;;;;;;;6.72;2.70;;;;;;;;;;4983226;28;20416;-78
2022/06/09 06:06:33;;;;;;;5.60;2.20;;;;;;;;;;4984607;28;20398;-77
2022/06/09 06:08:59;;;;;;;7.60;2.42;;;;;;;;;;4987945;28;20030;-77
2022/06/09 06:11:25;;;;;;;5.15;2.63;;;;;;;;;;4990110;28;20045;-77
2022/06/09 06:13:50;;;;;;;5.65;2.50;;;;;;;;;;4983623;28;20018;-74
2022/06/09 06:16:16;;;;;;;4.22;2.53;;;;;;;;;;4986031;28;20052;-78
2022/06/09 06:18:42;;;;;;;5.47;2.38;;;;;;;;;;4985664;28;20680;-77
2022/06/09 06:21:07;;;;;;;5.85;2.42;;;;;;;;;;4983135;28;20061;-76
2022/06/09 06:23:33;;;;;;;3.72;2.50;;;;;;;;;;4984578;28;20034;-79
2022/06/09 06:25:59;;;;;;;3.53;2.20;;;;;;;;;;4986287;28;20926;-80
2022/06/09 06:28:26;;;;;;;4.70;2.35;;;;;;;;;;4987910;28;20022;-80
2022/06/09 06:30:53;;;;;;;4.22;2.35;;;;;;;;;;5000587;28;20053;-78
2022/06/09 06:33:19;;;;;;;4.05;2.50;;;;;;;;;;5002591;28;20049;-78
2022/06/09 06:35:45;;;;;;;5.15;2.50;;;;;;;;;;4970837;28;20042;-77
2022/06/09 06:38:11;;;;;;;4.32;2.45;;;;;;;;;;4982136;28;20475;-76
2022/06/09 06:40:36;;;;;;;6.07;2.85;;;;;;;;;;4986098;28;20088;-74
2022/06/09 06:43:02;;;;;;;7.30;3.67;;;;;;;;;;4988583;28;20042;-73
2022/06/09 06:45:29;;;;;;;6.78;2.58;;;;;;;;;;4978800;28;20037;-74
2022/06/09 06:47:56;;;;;;;4.30;2.25;;;;;;;;;;4980465;28;20052;-74
2022/06/09 06:50:25;;;;;;;9.35;2.03;;;;;;;;;;4988575;28;20031;-74
2022/06/09 06:52:50;;;;;;;5.30;2.70;;;;;;;;;;4988195;28;20023;-74
2022/06/09 06:55:18;;;;;;;5.35;1.90;;;;;;;;;;4988343;28;20037;-75
2022/06/09 06:57:44;;;;;;;17.15;3.45;;;;;;;;;;4988853;28;20026;-74
2022/06/09 07:00:13;;;;;;;4.75;2.53;;;;;;;;;;4973941;28;20398;-76
2022/06/09 07:02:39;;;;;;;3.90;2.30;;;;;;;;;;4972922;28;20050;-74
2022/06/09 07:05:05;;;;;;;5.15;2.28;;;;;;;;;;4972307;28;20030;-78
2022/06/09 07:07:31;;;;;;;8.98;2.42;;;;;;;;;;4973069;28;20412;-76
2022/06/09 07:09:56;;;;;;;4.93;2.25;;;;;;;;;;4972294;28;20042;-76
2022/06/09 07:12:22;;;;;;;6.43;1.85;;;;;;;;;;4972707;28;20035;-77
2022/06/09 07:14:47;;;;;;;3.85;1.80;;;;;;;;;;4971638;28;20035;-76
2022/06/09 07:17:13;;;;;;;3.60;2.00;;;;;;;;;;5002163;28;20120;-78
2022/06/09 07:19:38;;;;;;;3.72;2.15;;;;;;;;;;5004888;28;20498;-77
2022/06/09 07:22:06;;;;;;;3.92;1.80;;;;;;;;;;5011345;28;20022;-76
2022/06/09 07:24:32;;;;;;;4.68;2.40;;;;;;;;;;4990771;28;20478;-78
2022/06/09 07:26:57;;;;;;;2.78;2.00;;;;;;;;;;4991192;28;20041;-76
2022/06/09 07:29:25;;;;;;;5.03;2.38;;;;;;;;;;4992411;28;20030;-76
2022/06/09 07:31:51;;;;;;;3.90;2.20;;;;;;;;;;4990017;28;20026;-77
2022/06/09 07:34:16;;;;;;;6.40;2.03;;;;;;;;;;4992315;28;20045;-76
2022/06/09 07:36:42;;;;;;;2.38;1.95;;;;;;;;;;4988623;28;20042;-76
2022/06/09 07:39:08;;;;;;;3.67;2.15;;;;;;;;;;4989436;28;20031;-78
2022/06/09 07:41:34;;;;;;;3.60;2.20;;;;;;;;;;4955525;28;20026;-77
2022/06/09 07:44:02;;;;;;;4.22;2.33;;;;;;;;;;4962043;28;20742;-77
2022/06/09 07:46:29;;;;;;;3.42;2.60;;;;;;;;;;4985623;28;20031;-78
2022/06/09 07:48:54;;;;;;;3.28;2.03;;;;;;;;;;4977710;28;20065;-77
2022/06/09 07:51:22;;;;;;;2.65;2.10;;;;;;;;;;5001504;28;20062;-78
2022/06/09 07:53:48;;;;;;;4.13;2.25;;;;;;;;;;4982605;28;20026;-78
2022/06/09 07:56:13;;;;;;;3.15;1.98;;;;;;;;;;4971731;28;20031;-78
2022/06/09 07:58:39;;;;;;;3.55;2.08;;;;;;;;;;4970383;28;20314;-76
2022/06/09 08:01:04;;;;;;;6.22;2.50;;;;;;;;;;4970110;28;20490;-77
2022/06/09 08:03:30;;;;;;;3.25;2.22;;;;;;;;;;4971828;28;20031;-77
2022/06/09 08:05:56;;;;;;;3.92;2.20;;;;;;;;;;4981380;28;20038;-76
2022/06/09 08:08:21;;;;;;;5.40;2.20;;;;;;;;;;4986658;28;20066;-78
2022/06/09 08:10:48;;;;;;;5.97;2.95;;;;;;;;;;4988117;28;20037;-79
2022/06/09 08:13:14;;;;;;;6.32;2.55;;;;;;;;;;4982387;28;20041;-74
2022/06/09 08:15:41;;;;;;;8.20;3.40;;;;;;;;;;4975406;28;20033;-76
2022/06/09 08:18:07;;;;;;;3.00;2.00;;;;;;;;;;4983250;28;20081;-80
2022/06/09 08:20:35;;;;;;;2.47;2.10;;;;;;;;;;4987531;28;20029;-76
2022/06/09 08:23:17;;;;;;;3.90;2.35;;;;;;;;;;4984888;28;20160;-75
2022/06/09 08:25:46;;;;;;;4.50;2.20;;;;;;;;;;4999909;28;20034;-74
2022/06/09 08:28:18;;;;;;;6.13;2.50;;;;;;;;;;4985438;28;20116;-76
2022/06/09 08:30:45;;;;;;;3.60;2.88;;;;;;;;;;4986752;28;20480;-76
2022/06/09 08:33:10;;;;;;;6.80;2.55;;;;;;;;;;4987637;28;20137;-75
2022/06/09 08:35:37;;;;;;;3.45;2.10;;;;;;;;;;4989015;28;20477;-76
2022/06/09 08:38:07;;;;;;;5.95;2.90;;;;;;;;;;4971151;28;20038;-73
2022/06/09 08:41:08;;;;;;;2.55;2.00;;;;;;;;;;4983824;28;20042;-73
2022/06/09 08:43:47;;;;;;;8.45;2.30;;;;;;;;;;4982300;28;20026;-75
2022/06/09 08:46:19;;;;;;;2.00;1.65;;;;;;;;;;4977334;28;20031;-75
2022/06/09 08:48:47;;;;;;;7.20;2.95;;;;;;;;;;4986954;28;20034;-76
2022/06/09 08:51:34;;;;;;;7.40;2.63;;;;;;;;;;4981016;28;20069;-73
2022/06/09 08:54:10;;;;;;;6.10;2.60;;;;;;;;;;4998178;28;20033;-77
2022/06/09 08:56:38;;;;;;;2.80;2.17;;;;;;;;;;4988820;28;20026;-74
2022/06/09 08:59:17;;;;;;;6.28;2.20;;;;;;;;;;5009392;28;20036;-76
2022/06/09 09:01:51;;;;;;;8.80;3.08;;;;;;;;;;4990277;28;20105;-74
2022/06/09 09:04:23;;;;;;;4.15;2.30;;;;;;;;;;4989925;28;20038;-74
2022/06/09 09:07:15;;;;;;;6.65;2.75;;;;;;;;;;4983698;28;20035;-77
2022/06/09 09:09:41;;;;;;;5.47;3.47;;;;;;;;;;4983336;28;20052;-75
2022/06/09 09:12:20;;;;;;;5.20;2.83;;;;;;;;;;4988411;28;20486;-75
2022/06/09 09:14:47;;;;;;;6.30;3.28;;;;;;;;;;4990371;28;20033;-74
2022/06/09 09:17:38;;;;;;;6.50;2.47;;;;;;;;;;4986458;28;20057;-74
2022/06/09 09:20:26;;;;;;;9.30;2.67;;;;;;;;;;4984718;28;20049;-77
2022/06/09 09:22:58;;;;;;;3.00;2.70;;;;;;;;;;4989972;28;20649;-77
2022/06/09 09:25:45;;;;;;;6.38;2.75;;;;;;;;;;4988088;28;20540;-76
2022/06/09 09:28:22;;;;;;;5.50;2.58;;;;;;;;;;4986892;28;20467;-75
2022/06/09 09:31:24;;;;;;;6.93;3.00;;;;;;;;;;4981334;28;20106;-74
2022/06/09 09:33:49;;;;;;;9.75;3.28;;;;;;;;;;4988978;28;20037;-74
2022/06/09 09:36:28;;;;;;;6.72;2.78;;;;;;;;;;4989541;28;20078;-76
2022/06/09 09:39:02;;;;;;;7.70;2.47;;;;;;;;;;4987309;28;20556;-78
2022/06/09 09:41:34;;;;;;;6.88;3.53;;;;;;;;;;4988385;28;20026;-74
2022/06/09 09:44:23;;;;;;;14.85;3.80;;;;;;;;;;5006091;28;20111;-76
2022/06/09 09:46:58;;;;;;;10.23;3.42;;;;;;;;;;5005578;28;20561;-75
2022/06/09 09:49:29;;;;;;;4.00;2.92;;;;;;;;;;4988224;28;20030;-76
2022/06/09 09:51:57;;;;;;;5.55;3.53;;;;;;;;;;4986539;28;20049;-76
2022/06/09 09:54:36;;;;;;;5.10;3.15;;;;;;;;;;4996559;28;20053;-74
2022/06/09 09:57:15;;;;;;;9.93;4.53;;;;;;;;;;4970953;28;20130;-77
2022/06/09 09:59:51;;;;;;;8.85;4.32;;;;;;;;;;4980698;28;20031;-76
2022/06/09 10:14:45;;;;;;;7.90;2.90;;;;;;;;;;4977937;28;20411;-74
2022/06/09 10:17:49;;;;;;;6.22;2.80;;;;;;;;;;4999226;28;20550;-75
2022/06/09 10:20:14;;;;;;;8.85;3.85;;;;;;;;;;4983430;28;20050;-74
2022/06/09 10:22:53;;;;;;;9.48;4.32;;;;;;;;;;4997985;28;20078;-75
2022/06/09 10:25:30;;;;;;;9.52;4.00;;;;;;;;;;4969127;28;20034;-75
2022/06/09 10:28:31;;;;;;;8.77;3.88;;;;;;;;;;4987150;28;20093;-75
2022/06/09 10:31:19;;;;;;;5.22;3.30;;;;;;;;;;4986676;28;20496;-75
2022/06/09 10:34:12;;;;;;;4.28;3.13;;;;;;;;;;4989148;28;20034;-76
2022/06/09 10:36:48;;;;;;;6.38;3.33;;;;;;;;;;5006174;28;20124;-75
2022/06/09 10:39:22;;;;;;;3.20;2.83;;;;;;;;;;4999570;28;20038;-76
2022/06/09 10:41:55;;;;;;;6.60;3.08;;;;;;;;;;4988620;28;20030;-75
2022/06/09 10:44:32;;;;;;;6.30;3.40;;;;;;;;;;4973149;28;20475;-74
2022/06/09 10:55:53;;;;;;;4.53;2.92;;;;;;;;;;4987964;28;20041;-77
2022/06/09 10:58:31;;;;;;;3.47;2.60;;;;;;;;;;4992479;28;20085;-72
2022/06/09 11:01:00;;;;;;;5.72;2.95;;;;;;;;;;4989211;28;20137;-73
2022/06/09 11:03:31;;;;;;;7.22;2.95;;;;;;;;;;4999403;28;20479;-73
2022/06/09 11:06:15;;;;;;;;;;;;;;;;;;4986032;28;20038;-76
2022/06/09 11:08:52;;;;;;;2.75;2.05;;;;;;;;;;4984768;28;19910;-74
2022/06/09 11:11:17;;;;;;;6.10;2.20;;;;;;;;;;4989470;28;20045;-73
2022/06/09 11:14:04;;;;;;;4.63;2.15;;;;;;;;;;4976018;28;20392;-74
2022/06/09 11:17:18;;;;;;;6.88;2.47;;;;;;;;;;4982631;28;20096;-74
2022/06/09 11:20:02;;;;;;;2.80;1.77;;;;;;;;;;4993227;28;20042;-72
2022/06/09 11:23:04;;;;;;;8.77;1.40;;;;;;;;;;4992551;28;20092;-72
2022/06/09 11:25:48;;;;;;;3.83;1.58;;;;;;;;;;5007058;28;20054;-74
2022/06/09 11:28:44;;;;;;;3.95;2.15;;;;;;;;;;4984562;28;20734;-74
2022/06/09 11:31:16;;;;;;;2.15;1.80;;;;;;;;;;4972761;28;20109;-74
2022/06/09 11:33:42;;;;;;;;;;;;;;;;;;4982030;28;20412;-73
2022/06/09 11:36:13;;;;;;;3.67;1.73;;;;;;;;;;4987094;28;19964;-73
2022/06/09 11:39:12;;;;;;;1.88;1.40;;;;;;;;;;4994278;28;20036;-76
2022/06/09 11:41:59;;;;;;;3.10;1.90;;;;;;;;;;4989617;28;20027;-74
2022/06/09 11:44:36;;;;;;;1.88;1.50;;;;;;;;;;4975015;28;20019;-72
2022/06/09 11:47:16;;;;;;;5.13;2.67;;;;;;;;;;4971149;28;20031;-72
2022/06/09 11:49:54;;;;;;;3.00;2.03;;;;;;;;;;4986076;28;20521;-72
2022/06/09 11:52:45;;;;;;;2.58;1.95;;;;;;;;;;4999113;28;20126;-73
2022/06/09 11:58:35;;;;;;;1.50;1.40;;;;;;;;;;4985167;28;20052;-74
2022/06/09 12:01:24;;;;;;;1.77;1.60;;;;;;;;;;5000329;28;20034;-74
2022/06/09 12:04:11;;;;;;;1.70;1.45;;;;;;;;;;4983799;28;20030;-73
2022/06/09 12:07:19;;;;;;;1.40;1.05;;;;;;;;;;4997004;28;20507;-73
2022/06/09 12:10:15;;;;;;;1.35;1.25;;;;;;;;;;4984582;28;20034;-74
2022/06/09 12:12:44;;;;;;;2.95;1.30;;;;;;;;;;4980401;28;20402;-73
2022/06/09 12:15:15;;;;;;;2.10;1.02;;;;;;;;;;4985502;28;20040;-73
2022/06/09 12:18:11;;;;;;;1.50;1.15;;;;;;;;;;4983583;28;20061;-73
2022/06/09 12:20:55;;;;;;;5.43;1.45;;;;;;;;;;4982851;28;20084;-74
2022/06/09 12:23:39;;;;;;;1.90;1.40;;;;;;;;;;4979369;28;20506;-74
2022/06/09 12:26:10;;;;;;;1.58;0.90;;;;;;;;;;4984698;28;20026;-74
2022/06/09 12:28:41;;;;;;;;;;;;;;;;;;4983339;28;20040;-74
2022/06/09 12:31:12;;;;;;;4.50;2.45;;;;;;;;;;4981610;28;19921;-75
2022/06/09 12:33:38;;;;;;;3.38;1.88;;;;;;;;;;4979525;28;20069;-73
2022/06/09 12:36:11;;;;;;;2.60;2.40;;;;;;;;;;4998029;28;20061;-72
2022/06/09 12:38:49;;;;;;;1.67;0.90;;;;;;;;;;4981240;28;20037;-73
2022/06/09 12:41:28;;;;;;;1.70;1.20;;;;;;;;;;4980511;28;20034;-73
2022/06/09 12:44:15;;;;;;;1.73;1.30;;;;;;;;;;4996588;28;20595;-73
2022/06/09 12:46:42;;;;;;;4.80;4.20;;;;;;;;;;4986195;28;20038;-73
2022/06/09 12:49:27;;;;;;;2.35;1.33;;;;;;;;;;4981309;28;20478;-75
2022/06/09 12:51:52;;;;;;;1.83;1.42;;;;;;;;;;4979183;28;20492;-74
2022/06/09 12:54:35;;;;;;;3.17;1.33;;;;;;;;;;4996333;28;20130;-74
2022/06/09 12:57:07;;;;;;;2.63;1.30;;;;;;;;;;4985148;28;20070;-74
2022/06/09 12:59:38;;;;;;;10.02;7.75;;;;;;;;;;4982702;28;20062;-74
2022/06/09 13:02:28;;;;;;;3.67;2.08;;;;;;;;;;4984037;28;20033;-73
2022/06/09 13:04:59;;;;;;;6.18;1.60;;;;;;;;;;4982346;28;20075;-73
2022/06/09 13:07:34;;;;;;;1.40;1.27;;;;;;;;;;4999059;28;20573;-73
2022/06/09 13:10:23;;;;;;;6.47;2.40;;;;;;;;;;4999583;28;20037;-75
2022/06/09 13:12:52;;;;;;;11.38;3.40;;;;;;;;;;4978945;28;20064;-73
2022/06/09 13:15:25;;;;;;;3.00;1.73;;;;;;;;;;4999023;28;20461;-74
2022/06/09 13:17:51;;;;;;;5.15;1.83;;;;;;;;;;4983527;28;20062;-75
2022/06/09 13:20:21;;;;;;;5.60;1.80;;;;;;;;;;4998219;28;20576;-73
2022/06/09 13:22:47;;;;;;;5.95;3.30;;;;;;;;;;4978065;28;20022;-74
2022/06/09 13:25:17;;;;;;;4.40;2.40;;;;;;;;;;4982137;28;20042;-75
2022/06/09 13:27:48;;;;;;;2.17;1.38;;;;;;;;;;4994049;28;20035;-73
2022/06/09 13:30:22;;;;;;;4.47;1.35;;;;;;;;;;4982467;28;20029;-75
2022/06/09 13:32:49;;;;;;;1.45;1.35;;;;;;;;;;4978115;28;20046;-74
2022/06/09 13:35:36;;;;;;;1.95;1.45;;;;;;;;;;4988730;28;20152;-75
2022/06/09 13:38:23;;;;;;;3.33;1.70;;;;;;;;;;4993333;28;20396;-74
2022/06/09 13:41:21;;;;;;;2.55;1.23;;;;;;;;;;4979268;28;20567;-75
2022/06/09 13:43:56;;;;;;;4.25;1.88;;;;;;;;;;4977618;28;20494;-75
2022/06/09 13:46:30;;;;;;;2.45;1.80;;;;;;;;;;4983595;28;20066;-74
2022/06/09 13:49:05;;;;;;;5.18;1.73;;;;;;;;;;4968132;28;20499;-74
2022/06/09 13:51:37;;;;;;;4.68;2.15;;;;;;;;;;4980109;28;20058;-72
2022/06/09 13:54:30;;;;;;;3.67;1.70;;;;;;;;;;4977213;28;20089;-74
2022/06/09 13:56:57;;;;;;;3.90;1.70;;;;;;;;;;4999452;28;20038;-73
2022/06/09 13:59:25;;;;;;;7.35;2.83;;;;;;;;;;4982680;28;20038;-73
2022/06/09 14:01:53;;;;;;;1.85;1.75;;;;;;;;;;4977372;28;20030;-73
2022/06/09 14:04:33;;;;;;;2.35;2.00;;;;;;;;;;4995152;28;20045;-73
2022/06/09 14:07:00;;;;;;;3.90;2.08;;;;;;;;;;4980123;28;20049;-73
2022/06/09 14:09:28;;;;;;;5.03;1.52;;;;;;;;;;4982166;28;20053;-75
2022/06/09 14:11:54;;;;;;;3.63;1.98;;;;;;;;;;4976004;28;20802;-74
2022/06/09 14:14:21;;;;;;;3.30;1.90;;;;;;;;;;4981222;28;20022;-74
2022/06/09 14:16:47;;;;;;;1.80;1.65;;;;;;;;;;4998604;28;20041;-74
2022/06/09 14:19:19;;;;;;;2.72;2.03;;;;;;;;;;4982162;28;20054;-78
2022/06/09 14:21:45;;;;;;;1.73;1.63;;;;;;;;;;4962908;28;20121;-73
2022/06/09 14:24:17;;;;;;;2.30;1.95;;;;;;;;;;4980188;28;20043;-74
2022/06/09 14:26:45;;;;;;;3.75;1.70;;;;;;;;;;4983304;28;20014;-74
2022/06/09 14:29:13;;;;;;;3.35;1.92;;;;;;;;;;4982239;28;20034;-74
2022/06/09 14:31:40;;;;;;;2.25;1.70;;;;;;;;;;4995401;28;20025;-73
2022/06/09 14:34:07;;;;;;;4.47;2.40;;;;;;;;;;4975233;28;20031;-73
2022/06/09 14:36:33;;;;;;;1.90;1.63;;;;;;;;;;4980149;28;20023;-75
2022/06/09 14:39:01;;;;;;;5.45;5.05;;;;;;;;;;4980945;28;20371;-74
2022/06/09 14:41:30;;;;;;;4.30;3.08;;;;;;;;;;4981546;28;20040;-74
2022/06/09 14:43:58;;;;;;;3.22;1.80;;;;;;;;;;4979431;28;20038;-75
2022/06/09 14:46:30;;;;;;;1.83;1.73;;;;;;;;;;4997903;28;20487;-74
2022/06/09 14:48:56;;;;;;;2.38;2.03;;;;;;;;;;4982745;28;20061;-74
2022/06/09 14:51:23;;;;;;;5.72;2.58;;;;;;;;;;4981463;28;20034;-74
2022/06/09 14:53:49;;;;;;;2.92;2.22;;;;;;;;;;4976208;28;20038;-73
2022/06/09 14:56:30;;;;;;;3.70;2.75;;;;;;;;;;4983999;28;20036;-77
2022/06/09 14:58:56;;;;;;;2.03;1.80;;;;;;;;;;4988893;28;20034;-73
2022/06/09 15:01:21;;;;;;;2.35;1.90;;;;;;;;;;4985251;28;20035;-74
2022/06/09 15:03:48;;;;;;;3.83;2.00;;;;;;;;;;4993244;28;20034;-74
2022/06/09 15:06:16;;;;;;;4.18;1.85;;;;;;;;;;4981877;28;20129;-73
2022/06/09 15:08:43;;;;;;;4.32;2.40;;;;;;;;;;4998165;28;20444;-73
2022/06/09 15:11:09;;;;;;;2.03;1.85;;;;;;;;;;4998010;28;20029;-74
2022/06/09 15:13:34;;;;;;;2.60;1.65;;;;;;;;;;4993997;28;20398;-73
2022/06/09 15:16:05;;;;;;;2.58;1.85;;;;;;;;;;4983616;28;20042;-74
2022/06/09 15:18:31;;;;;;;1.93;1.67;;;;;;;;;;4982096;28;20526;-75
2022/06/09 15:21:00;;;;;;;2.60;1.70;;;;;;;;;;4983095;28;20347;-75
2022/06/09 15:23:29;;;;;;;1.83;1.50;;;;;;;;;;4981123;28;20050;-75
2022/06/09 15:25:56;;;;;;;1.63;1.52;;;;;;;;;;4985488;28;20170;-73
2022/06/09 15:28:24;;;;;;;1.50;1.40;;;;;;;;;;4987429;28;20037;-73
2022/06/09 15:30:54;;;;;;;2.03;1.85;;;;;;;;;;4970590;28;20562;-75
2022/06/09 15:33:22;;;;;;;2.15;1.60;;;;;;;;;;4955814;28;20396;-74
2022/06/09 15:35:54;;;;;;;2.15;1.58;;;;;;;;;;4955575;28;20030;-73
2022/06/09 15:38:21;;;;;;;2.45;2.25;;;;;;;;;;4955928;28;20035;-75
2022/06/09 15:40:47;;;;;;;3.70;3.33;;;;;;;;;;4973387;28;20038;-73